sensor_id;sensor_type;location;lat;lon;timestamp;temperature;humidity
421;DHT22;63667;49.046;8.468;2023-04-19T00:02:13;11.00;99.60
421;DHT22;63667;49.046;8.468;2023-04-19T00:04:42;11.00;99.60
421;DHT22;63667;49.046;8.468;2023-04-19T00:07:11;10.90;99.60
421;DHT22;63667;49.046;8.468;2023-04-19T00:09:39;10.90;99.60
421;DHT22;63667;49.046;8.468;2023-04-19T00:12:07;10.90;99.60
421;DHT22;63667;49.046;8.468;2023-04-19T00:14:34;10.90;99.60
421;DHT22;63667;49.046;8.468;2023-04-19T00:17:02;10.90;99.60
421;DHT22;63667;49.046;8.468;2023-04-19T00:19:30;10.90;99.60
421;DHT22;63667;49.046;8.468;2023-04-19T00:21:58;10.90;99.60
421;DHT22;63667;49.046;8.468;2023-04-19T00:24:27;10.90;99.60
421;DHT22;63667;49.046;8.468;2023-04-19T00:26:58;10.90;99.60
421;DHT22;63667;49.046;8.468;2023-04-19T00:29:26;10.90;99.60
421;DHT22;63667;49.046;8.468;2023-04-19T00:31:54;10.80;99.60
421;DHT22;63667;49.046;8.468;2023-04-19T00:34:21;10.80;99.60
421;DHT22;63667;49.046;8.468;2023-04-19T00:36:49;10.80;99.60
421;DHT22;63667;49.046;8.468;2023-04-19T00:39:17;10.80;99.60
421;DHT22;63667;49.046;8.468;2023-04-19T00:41:44;10.80;99.60
421;DHT22;63667;49.046;8.468;2023-04-19T00:44:12;10.80;99.60
421;DHT22;63667;49.046;8.468;2023-04-19T00:46:39;10.80;99.60
421;DHT22;63667;49.046;8.468;2023-04-19T00:49:07;10.80;99.60
421;DHT22;63667;49.046;8.468;2023-04-19T00:51:35;10.80;99.60
421;DHT22;63667;49.046;8.468;2023-04-19T00:54:02;10.80;99.60
421;DHT22;63667;49.046;8.468;2023-04-19T00:56:31;10.80;99.60
421;DHT22;63667;49.046;8.468;2023-04-19T00:59:00;10.70;99.60
421;DHT22;63667;49.046;8.468;2023-04-19T01:01:27;10.70;99.60
421;DHT22;63667;49.046;8.468;2023-04-19T01:03:55;10.70;99.60
421;DHT22;63667;49.046;8.468;2023-04-19T01:06:23;10.70;99.60
421;DHT22;63667;49.046;8.468;2023-04-19T01:08:53;10.60;99.60
421;DHT22;63667;49.046;8.468;2023-04-19T01:11:22;10.60;99.60
421;DHT22;63667;49.046;8.468;2023-04-19T01:13:49;10.70;99.60
421;DHT22;63667;49.046;8.468;2023-04-19T01:16:17;10.60;99.60
421;DHT22;63667;49.046;8.468;2023-04-19T01:18:44;10.60;99.60
421;DHT22;63667;49.046;8.468;2023-04-19T01:21:13;10.60;99.60
421;DHT22;63667;49.046;8.468;2023-04-19T01:23:40;10.60;99.60
421;DHT22;63667;49.046;8.468;2023-04-19T01:26:08;10.60;99.60
421;DHT22;63667;49.046;8.468;2023-04-19T01:28:35;10.60;99.60
421;DHT22;63667;49.046;8.468;2023-04-19T01:31:02;10.50;99.60
421;DHT22;63667;49.046;8.468;2023-04-19T01:33:29;10.50;99.60
421;DHT22;63667;49.046;8.468;2023-04-19T01:35:57;10.50;99.60
421;DHT22;63667;49.046;8.468;2023-04-19T01:38:24;10.50;99.60
421;DHT22;63667;49.046;8.468;2023-04-19T01:40:52;10.50;99.60
421;DHT22;63667;49.046;8.468;2023-04-19T01:43:23;10.40;99.60
421;DHT22;63667;49.046;8.468;2023-04-19T01:45:50;10.50;99.60
421;DHT22;63667;49.046;8.468;2023-04-19T01:48:17;10.50;99.60
421;DHT22;63667;49.046;8.468;2023-04-19T01:50:45;10.40;99.60
421;DHT22;63667;49.046;8.468;2023-04-19T01:53:13;10.40;99.60
421;DHT22;63667;49.046;8.468;2023-04-19T01:55:41;10.40;99.60
421;DHT22;63667;49.046;8.468;2023-04-19T01:58:08;10.50;99.60
421;DHT22;63667;49.046;8.468;2023-04-19T02:00:36;10.40;99.60
421;DHT22;63667;49.046;8.468;2023-04-19T02:03:03;10.40;99.60
421;DHT22;63667;49.046;8.468;2023-04-19T02:05:30;10.40;99.60
421;DHT22;63667;49.046;8.468;2023-04-19T02:07:58;10.40;99.60
421;DHT22;63667;49.046;8.468;2023-04-19T02:10:27;10.40;99.60
421;DHT22;63667;49.046;8.468;2023-04-19T02:12:55;10.40;99.60
421;DHT22;63667;49.046;8.468;2023-04-19T02:15:23;10.40;99.60
421;DHT22;63667;49.046;8.468;2023-04-19T02:17:50;10.40;99.60
421;DHT22;63667;49.046;8.468;2023-04-19T02:20:18;10.40;99.60
421;DHT22;63667;49.046;8.468;2023-04-19T02:22:45;10.40;99.60
421;DHT22;63667;49.046;8.468;2023-04-19T02:25:13;10.40;99.60
421;DHT22;63667;49.046;8.468;2023-04-19T02:27:42;10.40;99.60
421;DHT22;63667;49.046;8.468;2023-04-19T02:30:10;10.40;99.60
421;DHT22;63667;49.046;8.468;2023-04-19T02:32:39;10.40;99.60
421;DHT22;63667;49.046;8.468;2023-04-19T02:35:07;10.40;99.60
421;DHT22;63667;49.046;8.468;2023-04-19T02:37:35;10.40;99.60
421;DHT22;63667;49.046;8.468;2023-04-19T02:40:02;10.40;99.60
421;DHT22;63667;49.046;8.468;2023-04-19T02:42:31;10.40;99.60
421;DHT22;63667;49.046;8.468;2023-04-19T02:44:59;10.30;99.60
421;DHT22;63667;49.046;8.468;2023-04-19T02:47:27;10.30;99.60
421;DHT22;63667;49.046;8.468;2023-04-19T02:49:56;10.30;99.60
421;DHT22;63667;49.046;8.468;2023-04-19T02:52:25;10.30;99.60
421;DHT22;63667;49.046;8.468;2023-04-19T02:54:54;10.40;99.60
421;DHT22;63667;49.046;8.468;2023-04-19T02:57:21;10.30;99.60
421;DHT22;63667;49.046;8.468;2023-04-19T02:59:50;10.30;99.60
421;DHT22;63667;49.046;8.468;2023-04-19T03:02:18;10.40;99.60
421;DHT22;63667;49.046;8.468;2023-04-19T03:04:46;10.40;99.60
421;DHT22;63667;49.046;8.468;2023-04-19T03:07:14;10.40;99.60
421;DHT22;63667;49.046;8.468;2023-04-19T03:09:42;10.30;99.60
421;DHT22;63667;49.046;8.468;2023-04-19T03:12:09;10.30;99.60
421;DHT22;63667;49.046;8.468;2023-04-19T03:14:37;10.30;99.60
421;DHT22;63667;49.046;8.468;2023-04-19T03:17:04;10.30;99.60
421;DHT22;63667;49.046;8.468;2023-04-19T03:19:32;10.30;99.60
421;DHT22;63667;49.046;8.468;2023-04-19T03:21:59;10.30;99.60
421;DHT22;63667;49.046;8.468;2023-04-19T03:24:29;10.30;99.60
421;DHT22;63667;49.046;8.468;2023-04-19T03:26:57;10.20;99.60
421;DHT22;63667;49.046;8.468;2023-04-19T03:29:25;10.20;99.60
421;DHT22;63667;49.046;8.468;2023-04-19T03:31:52;10.20;99.60
421;DHT22;63667;49.046;8.468;2023-04-19T03:34:21;10.30;99.60
421;DHT22;63667;49.046;8.468;2023-04-19T03:36:49;10.30;99.60
421;DHT22;63667;49.046;8.468;2023-04-19T03:39:22;10.20;99.60
421;DHT22;63667;49.046;8.468;2023-04-19T03:41:49;10.20;99.60
421;DHT22;63667;49.046;8.468;2023-04-19T03:44:17;10.30;99.60
421;DHT22;63667;49.046;8.468;2023-04-19T03:46:45;10.20;99.60
421;DHT22;63667;49.046;8.468;2023-04-19T03:49:14;10.20;99.60
421;DHT22;63667;49.046;8.468;2023-04-19T03:51:41;10.30;99.60
421;DHT22;63667;49.046;8.468;2023-04-19T03:54:10;10.20;99.60
421;DHT22;63667;49.046;8.468;2023-04-19T03:56:38;10.20;99.60
421;DHT22;63667;49.046;8.468;2023-04-19T03:59:07;10.20;99.60
421;DHT22;63667;49.046;8.468;2023-04-19T04:01:35;10.20;99.60
421;DHT22;63667;49.046;8.468;2023-04-19T04:04:07;10.20;99.60
421;DHT22;63667;49.046;8.468;2023-04-19T04:06:34;10.20;99.60
421;DHT22;63667;49.046;8.468;2023-04-19T04:09:02;10.20;99.60
421;DHT22;63667;49.046;8.468;2023-04-19T04:11:29;10.20;99.60
421;DHT22;63667;49.046;8.468;2023-04-19T04:13:57;10.20;99.60
421;DHT22;63667;49.046;8.468;2023-04-19T04:16:25;10.30;99.60
421;DHT22;63667;49.046;8.468;2023-04-19T04:18:53;10.30;99.60
421;DHT22;63667;49.046;8.468;2023-04-19T04:21:22;10.40;99.60
421;DHT22;63667;49.046;8.468;2023-04-19T04:23:50;10.30;99.60
421;DHT22;63667;49.046;8.468;2023-04-19T04:26:19;10.30;99.60
421;DHT22;63667;49.046;8.468;2023-04-19T04:28:47;10.30;99.60
421;DHT22;63667;49.046;8.468;2023-04-19T04:31:15;10.40;99.60
421;DHT22;63667;49.046;8.468;2023-04-19T04:34:03;10.30;99.60
421;DHT22;63667;49.046;8.468;2023-04-19T04:36:32;10.30;99.60
421;DHT22;63667;49.046;8.468;2023-04-19T04:38:59;10.30;99.60
421;DHT22;63667;49.046;8.468;2023-04-19T04:41:27;10.30;99.60
421;DHT22;63667;49.046;8.468;2023-04-19T04:44:16;10.30;99.60
421;DHT22;63667;49.046;8.468;2023-04-19T04:46:43;10.30;99.60
421;DHT22;63667;49.046;8.468;2023-04-19T04:49:11;10.50;99.60
421;DHT22;63667;49.046;8.468;2023-04-19T04:51:37;10.50;99.60
421;DHT22;63667;49.046;8.468;2023-04-19T04:54:04;10.70;99.60
421;DHT22;63667;49.046;8.468;2023-04-19T04:56:30;10.60;99.60
421;DHT22;63667;49.046;8.468;2023-04-19T04:58:57;10.50;99.60
421;DHT22;63667;49.046;8.468;2023-04-19T05:01:24;10.50;99.60
421;DHT22;63667;49.046;8.468;2023-04-19T05:03:50;10.40;99.60
421;DHT22;63667;49.046;8.468;2023-04-19T05:06:17;10.50;99.60
421;DHT22;63667;49.046;8.468;2023-04-19T05:08:45;10.50;99.60
421;DHT22;63667;49.046;8.468;2023-04-19T05:11:13;10.40;99.60
421;DHT22;63667;49.046;8.468;2023-04-19T05:13:40;10.30;99.60
421;DHT22;63667;49.046;8.468;2023-04-19T05:16:08;10.40;99.60
421;DHT22;63667;49.046;8.468;2023-04-19T05:18:35;10.40;99.60
421;DHT22;63667;49.046;8.468;2023-04-19T05:21:03;10.40;99.60
421;DHT22;63667;49.046;8.468;2023-04-19T05:23:32;10.40;99.60
421;DHT22;63667;49.046;8.468;2023-04-19T05:26:00;10.40;99.60
421;DHT22;63667;49.046;8.468;2023-04-19T05:28:27;10.30;99.60
421;DHT22;63667;49.046;8.468;2023-04-19T05:30:55;10.50;99.60
421;DHT22;63667;49.046;8.468;2023-04-19T05:33:21;10.50;99.60
421;DHT22;63667;49.046;8.468;2023-04-19T05:35:48;10.50;99.60
421;DHT22;63667;49.046;8.468;2023-04-19T05:38:15;10.60;99.60
421;DHT22;63667;49.046;8.468;2023-04-19T05:40:44;10.50;99.60
421;DHT22;63667;49.046;8.468;2023-04-19T05:43:11;10.70;99.60
421;DHT22;63667;49.046;8.468;2023-04-19T05:45:39;10.70;99.60
421;DHT22;63667;49.046;8.468;2023-04-19T05:48:06;11.00;99.60
421;DHT22;63667;49.046;8.468;2023-04-19T05:50:34;11.10;99.60
421;DHT22;63667;49.046;8.468;2023-04-19T05:53:02;11.20;99.60
421;DHT22;63667;49.046;8.468;2023-04-19T05:55:30;11.40;99.60
421;DHT22;63667;49.046;8.468;2023-04-19T05:58:00;11.40;99.60
421;DHT22;63667;49.046;8.468;2023-04-19T06:00:27;11.60;99.60
421;DHT22;63667;49.046;8.468;2023-04-19T06:02:56;11.80;99.60
421;DHT22;63667;49.046;8.468;2023-04-19T06:05:24;11.80;99.60
421;DHT22;63667;49.046;8.468;2023-04-19T06:07:51;11.60;99.60
421;DHT22;63667;49.046;8.468;2023-04-19T06:10:22;11.30;99.60
421;DHT22;63667;49.046;8.468;2023-04-19T06:12:49;11.30;99.60
421;DHT22;63667;49.046;8.468;2023-04-19T06:15:17;11.40;99.60
421;DHT22;63667;49.046;8.468;2023-04-19T06:17:44;11.40;99.60
421;DHT22;63667;49.046;8.468;2023-04-19T06:20:12;11.70;99.60
421;DHT22;63667;49.046;8.468;2023-04-19T06:22:44;12.10;99.60
421;DHT22;63667;49.046;8.468;2023-04-19T06:25:11;12.30;99.60
421;DHT22;63667;49.046;8.468;2023-04-19T06:27:39;12.40;99.60
421;DHT22;63667;49.046;8.468;2023-04-19T06:30:08;12.20;99.60
421;DHT22;63667;49.046;8.468;2023-04-19T06:32:36;12.00;99.60
421;DHT22;63667;49.046;8.468;2023-04-19T06:35:04;12.00;99.60
421;DHT22;63667;49.046;8.468;2023-04-19T06:37:33;12.20;99.60
421;DHT22;63667;49.046;8.468;2023-04-19T06:40:01;12.20;99.60
421;DHT22;63667;49.046;8.468;2023-04-19T06:42:37;12.00;99.60
421;DHT22;63667;49.046;8.468;2023-04-19T06:45:06;11.80;99.60
421;DHT22;63667;49.046;8.468;2023-04-19T06:47:34;11.90;99.60
421;DHT22;63667;49.046;8.468;2023-04-19T06:50:02;12.00;99.60
421;DHT22;63667;49.046;8.468;2023-04-19T06:52:30;12.20;99.60
421;DHT22;63667;49.046;8.468;2023-04-19T06:54:57;12.30;99.60
421;DHT22;63667;49.046;8.468;2023-04-19T06:57:25;12.40;99.60
421;DHT22;63667;49.046;8.468;2023-04-19T06:59:53;12.40;99.60
421;DHT22;63667;49.046;8.468;2023-04-19T07:02:21;12.50;99.60
421;DHT22;63667;49.046;8.468;2023-04-19T07:04:49;12.80;99.60
421;DHT22;63667;49.046;8.468;2023-04-19T07:07:16;12.70;99.60
421;DHT22;63667;49.046;8.468;2023-04-19T07:09:44;12.70;99.60
421;DHT22;63667;49.046;8.468;2023-04-19T07:12:11;12.70;99.60
421;DHT22;63667;49.046;8.468;2023-04-19T07:14:39;12.70;99.60
421;DHT22;63667;49.046;8.468;2023-04-19T07:17:06;12.90;99.60
421;DHT22;63667;49.046;8.468;2023-04-19T07:19:37;13.10;99.60
421;DHT22;63667;49.046;8.468;2023-04-19T07:22:04;13.50;99.60
421;DHT22;63667;49.046;8.468;2023-04-19T07:24:32;13.90;99.60
421;DHT22;63667;49.046;8.468;2023-04-19T07:26:59;13.90;99.60
421;DHT22;63667;49.046;8.468;2023-04-19T07:29:27;14.00;99.60
421;DHT22;63667;49.046;8.468;2023-04-19T07:31:55;13.70;99.60
421;DHT22;63667;49.046;8.468;2023-04-19T07:34:22;13.50;99.60
421;DHT22;63667;49.046;8.468;2023-04-19T07:36:50;13.10;99.60
421;DHT22;63667;49.046;8.468;2023-04-19T07:39:17;13.00;99.60
421;DHT22;63667;49.046;8.468;2023-04-19T07:41:45;13.00;99.60
421;DHT22;63667;49.046;8.468;2023-04-19T07:44:12;13.10;99.60
421;DHT22;63667;49.046;8.468;2023-04-19T07:46:41;13.00;99.60
421;DHT22;63667;49.046;8.468;2023-04-19T07:49:09;13.10;99.60
421;DHT22;63667;49.046;8.468;2023-04-19T07:51:36;13.10;99.60
421;DHT22;63667;49.046;8.468;2023-04-19T07:54:03;13.10;99.60
421;DHT22;63667;49.046;8.468;2023-04-19T07:56:31;13.30;99.60
421;DHT22;63667;49.046;8.468;2023-04-19T07:58:59;13.50;99.60
421;DHT22;63667;49.046;8.468;2023-04-19T08:01:28;13.70;99.60
421;DHT22;63667;49.046;8.468;2023-04-19T08:03:54;14.00;99.60
421;DHT22;63667;49.046;8.468;2023-04-19T08:06:21;14.50;99.60
421;DHT22;63667;49.046;8.468;2023-04-19T08:08:49;14.70;99.60
421;DHT22;63667;49.046;8.468;2023-04-19T08:11:16;15.40;99.60
421;DHT22;63667;49.046;8.468;2023-04-19T08:13:44;15.30;99.60
421;DHT22;63667;49.046;8.468;2023-04-19T08:16:11;15.70;99.60
421;DHT22;63667;49.046;8.468;2023-04-19T08:18:39;15.60;99.60
421;DHT22;63667;49.046;8.468;2023-04-19T08:21:07;15.40;99.60
421;DHT22;63667;49.046;8.468;2023-04-19T08:23:34;15.20;99.60
421;DHT22;63667;49.046;8.468;2023-04-19T08:26:05;15.50;99.60
421;DHT22;63667;49.046;8.468;2023-04-19T08:28:33;15.70;99.60
421;DHT22;63667;49.046;8.468;2023-04-19T08:31:04;15.80;99.60
421;DHT22;63667;49.046;8.468;2023-04-19T08:33:33;15.80;99.60
421;DHT22;63667;49.046;8.468;2023-04-19T08:36:00;15.30;99.60
421;DHT22;63667;49.046;8.468;2023-04-19T08:38:28;15.00;99.60
421;DHT22;63667;49.046;8.468;2023-04-19T08:40:56;14.90;99.60
421;DHT22;63667;49.046;8.468;2023-04-19T08:43:24;15.00;99.60
421;DHT22;63667;49.046;8.468;2023-04-19T08:45:55;15.40;99.60
421;DHT22;63667;49.046;8.468;2023-04-19T08:48:27;15.50;99.60
421;DHT22;63667;49.046;8.468;2023-04-19T08:50:57;15.20;99.60
421;DHT22;63667;49.046;8.468;2023-04-19T08:53:27;15.20;99.60
421;DHT22;63667;49.046;8.468;2023-04-19T08:55:55;15.30;99.60
421;DHT22;63667;49.046;8.468;2023-04-19T08:58:26;15.30;99.60
421;DHT22;63667;49.046;8.468;2023-04-19T09:00:57;15.30;99.60
421;DHT22;63667;49.046;8.468;2023-04-19T09:03:25;15.20;99.60
421;DHT22;63667;49.046;8.468;2023-04-19T09:05:53;14.80;99.60
421;DHT22;63667;49.046;8.468;2023-04-19T09:08:25;15.00;99.60
421;DHT22;63667;49.046;8.468;2023-04-19T09:10:55;14.70;99.60
421;DHT22;63667;49.046;8.468;2023-04-19T09:13:26;14.80;99.60
421;DHT22;63667;49.046;8.468;2023-04-19T09:15:54;14.40;99.60
421;DHT22;63667;49.046;8.468;2023-04-19T09:18:22;13.90;99.60
421;DHT22;63667;49.046;8.468;2023-04-19T09:20:53;14.10;99.60
421;DHT22;63667;49.046;8.468;2023-04-19T09:23:25;13.90;99.60
421;DHT22;63667;49.046;8.468;2023-04-19T09:25:53;14.00;99.60
421;DHT22;63667;49.046;8.468;2023-04-19T09:28:20;13.90;99.60
421;DHT22;63667;49.046;8.468;2023-04-19T09:30:48;13.80;99.60
421;DHT22;63667;49.046;8.468;2023-04-19T09:33:45;13.80;99.60
421;DHT22;63667;49.046;8.468;2023-04-19T09:36:26;13.80;99.60
421;DHT22;63667;49.046;8.468;2023-04-19T09:38:53;14.20;99.60
421;DHT22;63667;49.046;8.468;2023-04-19T09:41:21;14.60;99.60
421;DHT22;63667;49.046;8.468;2023-04-19T09:43:49;14.90;99.60
421;DHT22;63667;49.046;8.468;2023-04-19T09:51:44;15.60;99.60
421;DHT22;63667;49.046;8.468;2023-04-19T09:54:13;15.40;99.60
421;DHT22;63667;49.046;8.468;2023-04-19T09:56:40;16.00;99.60
421;DHT22;63667;49.046;8.468;2023-04-19T09:59:08;17.20;99.60
421;DHT22;63667;49.046;8.468;2023-04-19T10:01:43;17.50;99.60
421;DHT22;63667;49.046;8.468;2023-04-19T10:04:16;16.90;99.60
421;DHT22;63667;49.046;8.468;2023-04-19T10:07:05;16.70;99.60
421;DHT22;63667;49.046;8.468;2023-04-19T10:09:34;16.10;99.60
421;DHT22;63667;49.046;8.468;2023-04-19T10:12:03;16.20;99.60
421;DHT22;63667;49.046;8.468;2023-04-19T10:14:34;17.10;99.60
421;DHT22;63667;49.046;8.468;2023-04-19T10:17:02;17.60;99.60
421;DHT22;63667;49.046;8.468;2023-04-19T10:19:30;17.80;99.60
421;DHT22;63667;49.046;8.468;2023-04-19T10:22:02;18.10;99.60
421;DHT22;63667;49.046;8.468;2023-04-19T10:24:32;17.70;99.60
421;DHT22;63667;49.046;8.468;2023-04-19T10:27:12;17.20;99.60
421;DHT22;63667;49.046;8.468;2023-04-19T10:29:58;16.80;99.60
421;DHT22;63667;49.046;8.468;2023-04-19T10:32:43;16.40;99.60
421;DHT22;63667;49.046;8.468;2023-04-19T10:35:17;15.90;99.60
421;DHT22;63667;49.046;8.468;2023-04-19T10:43:38;16.40;99.60
421;DHT22;63667;49.046;8.468;2023-04-19T10:48:38;17.20;99.60
421;DHT22;63667;49.046;8.468;2023-04-19T10:51:15;16.90;99.60
421;DHT22;63667;49.046;8.468;2023-04-19T11:01:53;16.20;99.60
421;DHT22;63667;49.046;8.468;2023-04-19T11:07:17;16.10;99.60
421;DHT22;63667;49.046;8.468;2023-04-19T11:09:45;15.80;99.60
421;DHT22;63667;49.046;8.468;2023-04-19T11:12:14;15.80;99.60
421;DHT22;63667;49.046;8.468;2023-04-19T11:14:52;15.40;99.60
421;DHT22;63667;49.046;8.468;2023-04-19T11:17:27;15.30;99.60
421;DHT22;63667;49.046;8.468;2023-04-19T11:20:09;15.20;99.60
421;DHT22;63667;49.046;8.468;2023-04-19T11:22:45;15.00;99.60
421;DHT22;63667;49.046;8.468;2023-04-19T11:27:43;15.20;99.60
421;DHT22;63667;49.046;8.468;2023-04-19T11:30:15;15.10;99.60
421;DHT22;63667;49.046;8.468;2023-04-19T11:32:51;15.10;99.60
421;DHT22;63667;49.046;8.468;2023-04-19T11:35:26;14.80;99.60
421;DHT22;63667;49.046;8.468;2023-04-19T11:37:54;14.70;99.60
421;DHT22;63667;49.046;8.468;2023-04-19T11:40:23;14.70;99.60
421;DHT22;63667;49.046;8.468;2023-04-19T11:42:58;14.40;99.60
421;DHT22;63667;49.046;8.468;2023-04-19T11:45:29;14.30;99.60
421;DHT22;63667;49.046;8.468;2023-04-19T11:47:57;14.10;99.60
421;DHT22;63667;49.046;8.468;2023-04-19T11:55:49;13.40;99.60
421;DHT22;63667;49.046;8.468;2023-04-19T11:58:43;13.20;99.60
421;DHT22;63667;49.046;8.468;2023-04-19T12:01:27;13.00;99.60
421;DHT22;63667;49.046;8.468;2023-04-19T12:03:55;13.00;99.60
421;DHT22;63667;49.046;8.468;2023-04-19T12:06:29;12.90;99.60
421;DHT22;63667;49.046;8.468;2023-04-19T12:09:05;12.90;99.60
421;DHT22;63667;49.046;8.468;2023-04-19T12:11:46;12.90;99.60
421;DHT22;63667;49.046;8.468;2023-04-19T12:14:17;12.90;99.60
421;DHT22;63667;49.046;8.468;2023-04-19T12:17:12;12.90;99.60
421;DHT22;63667;49.046;8.468;2023-04-19T12:19:55;12.90;99.60
421;DHT22;63667;49.046;8.468;2023-04-19T12:22:23;13.00;99.60
421;DHT22;63667;49.046;8.468;2023-04-19T12:24:51;13.10;99.60
421;DHT22;63667;49.046;8.468;2023-04-19T12:27:19;13.20;99.60
421;DHT22;63667;49.046;8.468;2023-04-19T12:29:46;13.10;99.60
421;DHT22;63667;49.046;8.468;2023-04-19T12:32:13;12.90;99.60
421;DHT22;63667;49.046;8.468;2023-04-19T12:34:41;12.80;99.60
421;DHT22;63667;49.046;8.468;2023-04-19T12:37:08;12.80;99.60
421;DHT22;63667;49.046;8.468;2023-04-19T12:39:35;12.80;99.60
421;DHT22;63667;49.046;8.468;2023-04-19T12:42:03;12.70;99.60
421;DHT22;63667;49.046;8.468;2023-04-19T12:44:31;12.60;99.60
421;DHT22;63667;49.046;8.468;2023-04-19T12:46:58;12.60;99.60
421;DHT22;63667;49.046;8.468;2023-04-19T12:49:25;12.60;99.60
421;DHT22;63667;49.046;8.468;2023-04-19T12:51:53;12.70;99.60
421;DHT22;63667;49.046;8.468;2023-04-19T12:54:20;12.70;99.60
421;DHT22;63667;49.046;8.468;2023-04-19T12:56:48;12.70;99.60
421;DHT22;63667;49.046;8.468;2023-04-19T12:59:16;12.60;99.60
421;DHT22;63667;49.046;8.468;2023-04-19T13:01:43;12.70;99.60
421;DHT22;63667;49.046;8.468;2023-04-19T13:04:11;12.70;99.60
421;DHT22;63667;49.046;8.468;2023-04-19T13:06:38;12.90;99.60
421;DHT22;63667;49.046;8.468;2023-04-19T13:09:06;12.90;99.60
421;DHT22;63667;49.046;8.468;2023-04-19T13:11:33;13.00;99.60
421;DHT22;63667;49.046;8.468;2023-04-19T13:14:01;12.90;99.60
421;DHT22;63667;49.046;8.468;2023-04-19T13:16:28;12.90;99.60
421;DHT22;63667;49.046;8.468;2023-04-19T13:18:56;12.90;99.60
421;DHT22;63667;49.046;8.468;2023-04-19T13:21:23;12.80;99.60
421;DHT22;63667;49.046;8.468;2023-04-19T13:23:52;12.70;99.60
421;DHT22;63667;49.046;8.468;2023-04-19T13:26:20;12.70;99.60
421;DHT22;63667;49.046;8.468;2023-04-19T13:28:47;12.50;99.60
421;DHT22;63667;49.046;8.468;2023-04-19T13:31:15;12.30;99.60
421;DHT22;63667;49.046;8.468;2023-04-19T13:33:42;12.20;99.60
421;DHT22;63667;49.046;8.468;2023-04-19T13:36:10;12.20;99.60
421;DHT22;63667;49.046;8.468;2023-04-19T13:38:37;12.10;99.60
421;DHT22;63667;49.046;8.468;2023-04-19T13:41:04;12.10;99.60
421;DHT22;63667;49.046;8.468;2023-04-19T13:43:32;12.00;99.60
421;DHT22;63667;49.046;8.468;2023-04-19T13:45:59;12.00;99.60
421;DHT22;63667;49.046;8.468;2023-04-19T13:48:27;12.00;99.60
421;DHT22;63667;49.046;8.468;2023-04-19T13:50:56;12.00;99.60
421;DHT22;63667;49.046;8.468;2023-04-19T13:53:24;12.20;99.60
421;DHT22;63667;49.046;8.468;2023-04-19T13:55:51;11.90;99.60
421;DHT22;63667;49.046;8.468;2023-04-19T13:58:18;11.80;99.60
421;DHT22;63667;49.046;8.468;2023-04-19T14:00:46;11.70;99.60
421;DHT22;63667;49.046;8.468;2023-04-19T14:03:14;11.60;99.60
421;DHT22;63667;49.046;8.468;2023-04-19T14:05:42;11.60;99.60
421;DHT22;63667;49.046;8.468;2023-04-19T14:08:09;11.90;99.60
421;DHT22;63667;49.046;8.468;2023-04-19T14:10:36;12.10;99.60
421;DHT22;63667;49.046;8.468;2023-04-19T14:13:04;12.50;99.60
421;DHT22;63667;49.046;8.468;2023-04-19T14:15:32;12.60;99.60
421;DHT22;63667;49.046;8.468;2023-04-19T14:18:00;12.70;99.60
421;DHT22;63667;49.046;8.468;2023-04-19T14:20:28;13.00;99.60
421;DHT22;63667;49.046;8.468;2023-04-19T14:22:55;13.20;99.60
421;DHT22;63667;49.046;8.468;2023-04-19T14:25:25;13.70;99.60
421;DHT22;63667;49.046;8.468;2023-04-19T14:27:52;14.10;99.60
421;DHT22;63667;49.046;8.468;2023-04-19T14:30:19;14.20;99.60
421;DHT22;63667;49.046;8.468;2023-04-19T14:32:47;14.30;99.60
421;DHT22;63667;49.046;8.468;2023-04-19T14:35:14;13.90;99.60
421;DHT22;63667;49.046;8.468;2023-04-19T14:37:42;14.00;99.60
421;DHT22;63667;49.046;8.468;2023-04-19T14:40:11;14.60;99.60
421;DHT22;63667;49.046;8.468;2023-04-19T14:42:38;15.30;99.60
421;DHT22;63667;49.046;8.468;2023-04-19T14:45:07;16.00;99.60
421;DHT22;63667;49.046;8.468;2023-04-19T14:47:35;16.30;99.60
421;DHT22;63667;49.046;8.468;2023-04-19T14:50:03;17.00;99.60
421;DHT22;63667;49.046;8.468;2023-04-19T14:52:31;17.50;99.60
421;DHT22;63667;49.046;8.468;2023-04-19T14:54:58;17.80;99.60
421;DHT22;63667;49.046;8.468;2023-04-19T14:57:26;16.30;99.60
421;DHT22;63667;49.046;8.468;2023-04-19T14:59:57;15.40;99.60
421;DHT22;63667;49.046;8.468;2023-04-19T15:02:41;17.00;99.60
421;DHT22;63667;49.046;8.468;2023-04-19T15:05:09;18.30;99.60
421;DHT22;63667;49.046;8.468;2023-04-19T15:07:36;18.40;99.60
421;DHT22;63667;49.046;8.468;2023-04-19T15:10:03;19.00;99.60
421;DHT22;63667;49.046;8.468;2023-04-19T15:12:31;19.00;99.60
421;DHT22;63667;49.046;8.468;2023-04-19T15:15:00;19.90;99.60
421;DHT22;63667;49.046;8.468;2023-04-19T15:17:27;19.90;99.60
421;DHT22;63667;49.046;8.468;2023-04-19T15:19:55;19.10;99.60
421;DHT22;63667;49.046;8.468;2023-04-19T15:22:24;18.70;99.60
421;DHT22;63667;49.046;8.468;2023-04-19T15:24:52;17.80;99.60
421;DHT22;63667;49.046;8.468;2023-04-19T15:27:20;17.80;99.60
421;DHT22;63667;49.046;8.468;2023-04-19T15:29:47;17.80;99.60
421;DHT22;63667;49.046;8.468;2023-04-19T15:32:15;17.10;99.60
421;DHT22;63667;49.046;8.468;2023-04-19T15:34:42;17.40;99.60
421;DHT22;63667;49.046;8.468;2023-04-19T15:37:10;17.40;99.60
421;DHT22;63667;49.046;8.468;2023-04-19T15:39:38;16.90;99.60
421;DHT22;63667;49.046;8.468;2023-04-19T15:42:05;16.80;99.60
421;DHT22;63667;49.046;8.468;2023-04-19T15:44:33;16.70;99.60
421;DHT22;63667;49.046;8.468;2023-04-19T15:47:00;17.30;99.60
421;DHT22;63667;49.046;8.468;2023-04-19T15:49:28;17.60;99.60
421;DHT22;63667;49.046;8.468;2023-04-19T15:51:56;17.50;99.60
421;DHT22;63667;49.046;8.468;2023-04-19T15:54:25;16.50;99.60
421;DHT22;63667;49.046;8.468;2023-04-19T15:56:52;15.60;99.60
421;DHT22;63667;49.046;8.468;2023-04-19T15:59:21;14.20;99.60
421;DHT22;63667;49.046;8.468;2023-04-19T16:01:49;13.20;99.60
421;DHT22;63667;49.046;8.468;2023-04-19T16:04:16;12.20;99.60
421;DHT22;63667;49.046;8.468;2023-04-19T16:06:44;11.60;99.60
421;DHT22;63667;49.046;8.468;2023-04-19T16:09:11;11.40;99.60
421;DHT22;63667;49.046;8.468;2023-04-19T16:11:39;11.20;99.60
421;DHT22;63667;49.046;8.468;2023-04-19T16:14:06;11.10;99.60
421;DHT22;63667;49.046;8.468;2023-04-19T16:16:34;10.90;99.60
421;DHT22;63667;49.046;8.468;2023-04-19T16:19:01;10.80;99.60
421;DHT22;63667;49.046;8.468;2023-04-19T16:21:29;10.70;99.60
421;DHT22;63667;49.046;8.468;2023-04-19T16:23:57;10.50;99.60
421;DHT22;63667;49.046;8.468;2023-04-19T16:26:26;10.40;99.60
421;DHT22;63667;49.046;8.468;2023-04-19T16:28:53;10.40;99.60
421;DHT22;63667;49.046;8.468;2023-04-19T16:31:22;10.50;99.60
421;DHT22;63667;49.046;8.468;2023-04-19T16:33:49;10.60;99.60
421;DHT22;63667;49.046;8.468;2023-04-19T16:36:16;10.60;99.60
421;DHT22;63667;49.046;8.468;2023-04-19T16:38:43;10.70;99.60
421;DHT22;63667;49.046;8.468;2023-04-19T16:41:10;10.80;99.60
421;DHT22;63667;49.046;8.468;2023-04-19T16:43:37;10.90;99.60
421;DHT22;63667;49.046;8.468;2023-04-19T16:46:04;11.10;99.60